VAM | Vabird-VBD

Virtual Vabird! Aerolínea Virtual de habla hispana, desde 2011




 INFORMACIÓN METAR y TAF
METAR FOR HECA
ADDS - METARS form results

(2119 UTC 21 January 2021)
Data provider http://aviationweather.gov/metar/data/
 
METAR text: HECA 212100Z 04010KT CAVOK 13/06 Q1028 NOSIG
Conditions at: HECA (CAIRO INTL AIRPO, EG) observed 2100 UTC 21 January 2021
Temperature: 13.0°C (55°F)
Dewpoint: 6.0°C (43°F) [RH = 62%]
Pressure (altimeter): 30.35 inches Hg (1028.0 mb)
Winds: from the NE (40 degrees) at 12 MPH (10 knots; 5.1 m/s)
Visibility: 6 or more miles (10+ km)
Ceiling: ceiling and visibility are OK
Clouds: unknown
Weather: no significant weather observed at this time

METAR text: HECA 212030Z 03011KT CAVOK 13/06 Q1028 NOSIG
Conditions at: HECA (CAIRO INTL AIRPO, EG) observed 2030 UTC 21 January 2021
Temperature: 13.0°C (55°F)
Dewpoint: 6.0°C (43°F) [RH = 62%]
Pressure (altimeter): 30.35 inches Hg (1028.0 mb)
Winds: from the NNE (30 degrees) at 13 MPH (11 knots; 5.7 m/s)
Visibility: 6 or more miles (10+ km)
Ceiling: ceiling and visibility are OK
Clouds: unknown
Weather: no significant weather observed at this time

Forecast for: HECA (CAIRO INTL AIRPO, EG)
Text: TAF HECA 211700Z 2112/2218 02012KT 8000 SCT025
Forecast period: 1200 UTC 21 January 2021 to 1800 UTC 22 January 2021
Forecast type: FROM: standard forecast or significant change
Winds: from the NNE (20 degrees) at 14 MPH (12 knots; 6.2 m/s)
Visibility: 5 miles (8 km)
Ceiling: at least 12,000 feet AGL
Clouds: scattered clouds at 2500 feet AGL
Weather: no significant weather forecast for this period
Text: TEMPO 2200/2209 VRB04KT 4000 HZ NSC
Forecast period: 0000 to 0900 UTC 22 January 2021
Forecast type: TEMPORARY: The following changes expected for less than half the time period
Winds: variable direction winds at 5 MPH (4 knots; 2.1 m/s)
Visibility: 2.49 miles (4.01 km)
Ceiling: unknown
Clouds: missing
Weather: HZ  (haze)

 MAPA DE AEROPUERTO

 INFORMACIÓN DE PISTA